Time;durP1;ratioP1;P1;durP2;ratioP2;P2;SDS_P1;SDS_P2;PMS_P1;PMS_P2;Temp;Humidity;BMP_temperature;BMP_pressure;BME280_temperature;BME280_humidity;BME280_pressure;Samples;Min_cycle;Max_cycle;Signal;HPM_P1;HPM_P2
2022/03/20 00:00:50;;;;;;;18.27;11.37;;;9.60;1.00;;;;;;5064310;28;20947;-79
2022/03/20 00:03:19;;;;;;;15.10;10.73;;;9.60;1.00;;;;;;5060708;28;20446;-80
2022/03/20 00:05:50;;;;;;;16.67;10.07;;;9.80;1.00;;;;;;5056298;28;20490;-81
2022/03/20 00:08:18;;;;;;;15.67;10.03;;;9.40;1.00;;;;;;5064308;28;20460;-80
2022/03/20 00:10:48;;;;;;;13.70;10.57;;;9.50;1.00;;;;;;5062641;28;20448;-80
2022/03/20 00:13:18;;;;;;;13.33;10.87;;;9.70;1.00;;;;;;5060717;28;20646;-80
2022/03/20 00:15:49;;;;;;;14.77;10.67;;;9.60;1.00;;;;;;5063099;28;20712;-80
2022/03/20 00:18:21;;;;;;;14.30;10.53;;;9.50;1.00;;;;;;5063104;28;20469;-80
2022/03/20 00:20:51;;;;;;;13.50;9.67;;;9.40;1.00;;;;;;5061361;28;20482;-80
2022/03/20 00:23:22;;;;;;;16.23;10.63;;;9.60;1.00;;;;;;5061091;28;20457;-79
2022/03/20 00:25:51;;;;;;;14.67;11.93;;;9.40;1.00;;;;;;5053382;28;21822;-81
2022/03/20 00:28:20;;;;;;;15.90;10.37;;;9.40;1.00;;;;;;5059196;28;20550;-80
2022/03/20 00:30:49;;;;;;;16.33;11.00;;;9.30;1.00;;;;;;5059444;28;20489;-78
2022/03/20 00:33:19;;;;;;;14.70;10.23;;;9.30;1.00;;;;;;5057770;28;20473;-80
2022/03/20 00:35:47;;;;;;;13.83;11.10;;;9.20;1.00;;;;;;5062248;28;20448;-80
2022/03/20 00:38:16;;;;;;;15.57;11.47;;;9.20;1.00;;;;;;5055843;28;20867;-79
2022/03/20 00:40:44;;;;;;;16.47;11.70;;;9.30;1.00;;;;;;5056166;28;20453;-79
2022/03/20 00:43:13;;;;;;;11.90;10.00;;;9.30;1.00;;;;;;5058959;28;20458;-80
2022/03/20 00:45:41;;;;;;;16.43;10.80;;;9.40;1.00;;;;;;5058425;28;20453;-78
2022/03/20 00:48:11;;;;;;;14.80;11.50;;;9.40;1.00;;;;;;5064253;28;20441;-80
2022/03/20 00:50:41;;;;;;;13.80;10.60;;;9.30;1.00;;;;;;5060229;28;20483;-80
2022/03/20 00:53:09;;;;;;;12.23;10.60;;;9.30;1.00;;;;;;5062810;28;20453;-80
2022/03/20 00:55:37;;;;;;;13.83;10.87;;;9.50;1.00;;;;;;5059052;28;21026;-79
2022/03/20 00:58:06;;;;;;;13.17;10.10;;;9.20;1.00;;;;;;5058614;28;21317;-79
2022/03/20 01:00:34;;;;;;;16.93;11.03;;;9.30;1.00;;;;;;5060020;28;20445;-80
2022/03/20 01:03:02;;;;;;;16.30;11.90;;;9.30;1.00;;;;;;5060597;28;20476;-79
2022/03/20 01:05:31;;;;;;;13.40;10.07;;;9.20;1.00;;;;;;5057997;28;20975;-80
2022/03/20 01:08:01;;;;;;;14.83;11.23;;;9.20;1.00;;;;;;5059979;28;20890;-79
2022/03/20 01:10:35;;;;;;;12.73;9.10;;;9.20;1.00;;;;;;5060765;28;20485;-80
2022/03/20 01:13:04;;;;;;;14.07;10.37;;;9.20;1.00;;;;;;5058050;28;20447;-79
2022/03/20 01:15:32;;;;;;;13.93;10.03;;;9.10;1.00;;;;;;5055389;28;20451;-80
2022/03/20 01:18:00;;;;;;;15.50;10.70;;;9.20;1.00;;;;;;5060346;28;20488;-80
2022/03/20 01:20:29;;;;;;;15.67;10.03;;;9.20;1.00;;;;;;5059247;28;20458;-79
2022/03/20 01:22:57;;;;;;;13.97;9.83;;;9.10;1.00;;;;;;5063487;28;20453;-79
2022/03/20 01:25:26;;;;;;;14.20;9.80;;;9.10;1.00;;;;;;5060693;28;20470;-80
2022/03/20 01:27:55;;;;;;;15.93;10.30;;;9.10;1.00;;;;;;5063622;28;20507;-80
2022/03/20 01:30:23;;;;;;;12.87;9.90;;;9.10;1.00;;;;;;5056950;28;20484;-80
2022/03/20 01:32:51;;;;;;;12.67;10.83;;;9.10;1.00;;;;;;5061025;28;20486;-80
2022/03/20 01:35:19;;;;;;;10.97;9.00;;;9.20;1.00;;;;;;5062086;28;20987;-79
2022/03/20 01:37:48;;;;;;;11.77;10.37;;;9.50;1.00;;;;;;5062042;28;20471;-80
2022/03/20 01:40:16;;;;;;;16.17;11.83;;;9.10;1.00;;;;;;5059331;28;20461;-79
2022/03/20 01:42:46;;;;;;;13.27;9.10;;;9.20;1.00;;;;;;5059011;28;20452;-80
2022/03/20 01:45:16;;;;;;;13.20;9.60;;;9.20;1.00;;;;;;5062681;28;20449;-80
2022/03/20 01:47:47;;;;;;;13.90;10.30;;;9.10;1.00;;;;;;5059494;28;21158;-79
2022/03/20 01:50:16;;;;;;;12.40;9.60;;;9.00;1.00;;;;;;5053339;28;20550;-79
2022/03/20 01:52:45;;;;;;;13.30;8.90;;;9.00;1.00;;;;;;5057378;28;20458;-80
2022/03/20 01:55:15;;;;;;;13.97;9.90;;;9.00;1.00;;;;;;5063001;28;20500;-79
2022/03/20 01:57:46;;;;;;;13.80;9.93;;;9.10;1.00;;;;;;5062543;28;20473;-80
2022/03/20 02:00:18;;;;;;;13.37;9.37;;;9.10;1.00;;;;;;5068291;28;20460;-79
2022/03/20 02:02:46;;;;;;;11.13;9.90;;;9.10;1.00;;;;;;5057897;28;20457;-79
2022/03/20 02:05:15;;;;;;;12.47;9.70;;;9.00;1.00;;;;;;5055537;28;20470;-79
2022/03/20 02:07:45;;;;;;;13.13;9.67;;;9.10;1.00;;;;;;5055200;28;20482;-79
2022/03/20 02:10:14;;;;;;;13.70;9.57;;;9.10;1.00;;;;;;5058260;28;20520;-79
2022/03/20 02:12:43;;;;;;;12.60;9.67;;;9.10;1.00;;;;;;5054587;28;20493;-79
2022/03/20 02:15:15;;;;;;;13.13;9.70;;;9.20;1.00;;;;;;5056340;28;20455;-79
2022/03/20 02:17:44;;;;;;;14.17;10.43;;;9.20;1.00;;;;;;5058966;28;21097;-80
2022/03/20 02:20:13;;;;;;;12.10;8.70;;;9.20;1.00;;;;;;5058477;28;20457;-80
2022/03/20 02:22:44;;;;;;;12.17;9.87;;;9.10;1.00;;;;;;5060594;28;20454;-80
2022/03/20 02:25:16;;;;;;;14.90;10.50;;;9.20;1.00;;;;;;5056831;28;20460;-80
2022/03/20 02:27:45;;;;;;;15.40;10.83;;;9.10;1.00;;;;;;5057045;28;20484;-79
2022/03/20 02:30:16;;;;;;;12.37;9.57;;;9.00;1.00;;;;;;5053826;28;20472;-78
2022/03/20 02:32:46;;;;;;;14.77;10.40;;;8.90;1.00;;;;;;5057410;28;20473;-79
2022/03/20 02:35:17;;;;;;;13.97;9.70;;;9.00;1.00;;;;;;5060134;28;20481;-78
2022/03/20 02:37:50;;;;;;;15.10;10.10;;;8.90;1.00;;;;;;5054735;28;20488;-79
2022/03/20 02:40:20;;;;;;;14.13;11.47;;;9.10;1.00;;;;;;5059691;28;21021;-78
2022/03/20 02:42:49;;;;;;;16.20;9.47;;;8.90;1.00;;;;;;5061364;28;20466;-79
2022/03/20 02:45:20;;;;;;;14.03;9.10;;;9.00;1.00;;;;;;5059257;28;20438;-78
2022/03/20 02:47:50;;;;;;;13.83;10.40;;;9.00;1.00;;;;;;5060364;28;20583;-79
2022/03/20 02:50:20;;;;;;;12.67;11.07;;;9.00;1.00;;;;;;5057873;28;20485;-76
2022/03/20 02:52:52;;;;;;;14.77;10.27;;;9.00;1.00;;;;;;5057777;28;21872;-79
2022/03/20 02:55:22;;;;;;;17.33;10.47;;;9.10;1.00;;;;;;5056514;28;21017;-76
2022/03/20 02:57:51;;;;;;;15.70;10.23;;;9.00;1.00;;;;;;5055839;28;20527;-80
2022/03/20 03:00:22;;;;;;;15.17;11.47;;;8.80;1.00;;;;;;5053123;28;20512;-79
2022/03/20 03:02:54;;;;;;;15.00;11.53;;;8.60;1.00;;;;;;5058747;28;20455;-78
2022/03/20 03:05:24;;;;;;;17.70;11.43;;;8.60;1.00;;;;;;5053792;28;20496;-80
2022/03/20 03:10:57;;;;;;;19.23;11.40;;;8.90;1.00;;;;;;5056986;28;20920;-80
2022/03/20 03:13:27;;;;;;;13.10;10.87;;;8.50;1.00;;;;;;5060127;28;20540;-79
2022/03/20 03:15:57;;;;;;;13.23;10.80;;;8.50;1.00;;;;;;5054189;28;20525;-79
2022/03/20 03:18:26;;;;;;;16.40;11.67;;;8.50;1.00;;;;;;5056271;28;20810;-80
2022/03/20 03:20:54;;;;;;;14.20;11.53;;;8.50;1.00;;;;;;5056614;28;20507;-79
2022/03/20 03:23:25;;;;;;;15.20;10.97;;;8.60;1.00;;;;;;5061473;28;20460;-80
2022/03/20 03:25:54;;;;;;;14.70;11.10;;;8.70;1.00;;;;;;5060161;28;20467;-79
2022/03/20 03:28:23;;;;;;;12.53;11.00;;;8.90;1.00;;;;;;5055270;28;20894;-79
2022/03/20 03:30:52;;;;;;;13.87;9.80;;;9.00;1.00;;;;;;5060924;28;20475;-81
2022/03/20 03:33:22;;;;;;;18.33;10.50;;;9.00;1.00;;;;;;5065497;28;20472;-80
2022/03/20 03:35:53;;;;;;;13.53;9.80;;;9.00;1.00;;;;;;5061642;28;21257;-79
2022/03/20 03:38:26;;;;;;;16.60;11.10;;;9.30;1.00;;;;;;5062364;28;21012;-80
2022/03/20 03:40:56;;;;;;;14.70;10.30;;;8.90;1.00;;;;;;5060695;28;20447;-79
2022/03/20 03:43:24;;;;;;;15.03;11.20;;;8.90;1.00;;;;;;5058356;28;20466;-80
2022/03/20 03:45:53;;;;;;;15.60;11.17;;;8.80;1.00;;;;;;5062481;28;20445;-79
2022/03/20 03:48:22;;;;;;;16.10;11.50;;;8.80;1.00;;;;;;5060231;28;20480;-81
2022/03/20 03:50:53;;;;;;;17.60;11.20;;;8.90;1.00;;;;;;5060524;28;20538;-79
2022/03/20 03:53:21;;;;;;;12.50;9.70;;;9.00;1.00;;;;;;5062554;28;20447;-79
2022/03/20 03:55:51;;;;;;;12.60;8.43;;;9.10;1.00;;;;;;5064847;28;20877;-79
2022/03/20 03:58:19;;;;;;;14.60;10.00;;;9.10;1.00;;;;;;5062187;28;20463;-79
2022/03/20 04:00:48;;;;;;;14.30;10.40;;;9.10;1.00;;;;;;5059887;28;20457;-79
2022/03/20 04:03:16;;;;;;;14.80;9.97;;;9.20;1.00;;;;;;5059997;28;20454;-80
2022/03/20 04:05:44;;;;;;;16.67;10.03;;;9.20;1.00;;;;;;5062793;28;20482;-79
2022/03/20 04:08:15;;;;;;;15.67;10.80;;;9.20;1.00;;;;;;5061138;28;20461;-80
2022/03/20 04:10:44;;;;;;;14.30;10.20;;;9.10;1.00;;;;;;5063952;28;21015;-80
2022/03/20 04:13:13;;;;;;;15.67;10.33;;;9.20;1.00;;;;;;5059015;28;20465;-79
2022/03/20 04:15:42;;;;;;;17.50;10.70;;;9.30;1.00;;;;;;5063971;28;20461;-79
2022/03/20 04:18:12;;;;;;;16.47;10.70;;;9.20;1.00;;;;;;5060904;28;20461;-80
2022/03/20 04:20:40;;;;;;;16.80;11.13;;;9.10;1.00;;;;;;5055854;28;20459;-79
2022/03/20 04:25:56;;;;;;;13.33;9.87;;;9.00;1.00;;;;;;5062690;28;21157;-78
2022/03/20 04:28:25;;;;;;;11.97;9.87;;;8.90;1.00;;;;;;5059883;28;20534;-79
2022/03/20 04:30:53;;;;;;;13.30;9.50;;;8.80;1.00;;;;;;5062265;28;20457;-78
2022/03/20 04:33:22;;;;;;;13.63;10.10;;;8.70;1.00;;;;;;5058100;28;20943;-78
2022/03/20 04:35:51;;;;;;;13.27;10.13;;;8.80;1.00;;;;;;5055854;28;20825;-79
2022/03/20 04:38:21;;;;;;;17.10;11.27;;;8.80;1.00;;;;;;5062470;28;20466;-79
2022/03/20 04:40:50;;;;;;;15.20;10.67;;;8.70;1.00;;;;;;5059551;28;20475;-79
2022/03/20 04:43:18;;;;;;;12.53;9.83;;;8.80;1.00;;;;;;5060127;28;20476;-78
2022/03/20 04:45:48;;;;;;;17.37;11.30;;;9.00;1.00;;;;;;5061912;28;20461;-80
2022/03/20 04:59:18;;;;;;;14.70;9.77;;;8.70;1.00;;;;;;5060285;28;20462;-79
2022/03/20 05:01:48;;;;;;;17.13;12.20;;;8.60;1.00;;;;;;5061545;28;20447;-80
2022/03/20 05:04:16;;;;;;;15.83;11.10;;;8.60;1.00;;;;;;5062586;28;20465;-80
2022/03/20 05:06:45;;;;;;;15.93;11.40;;;8.70;1.00;;;;;;5063859;28;20472;-79
2022/03/20 05:14:44;;;;;;;16.63;11.33;;;8.60;1.00;;;;;;5059347;28;20457;-80
2022/03/20 05:17:14;;;;;;;18.57;11.37;;;8.70;1.00;;;;;;5060007;28;20478;-78
2022/03/20 05:19:42;;;;;;;15.87;11.90;;;8.80;1.00;;;;;;5063097;28;22156;-81
2022/03/20 05:22:11;;;;;;;15.83;12.17;;;9.10;1.00;;;;;;5059053;28;20451;-80
2022/03/20 05:24:41;;;;;;;18.17;12.57;;;8.90;1.00;;;;;;5059750;28;20461;-79
2022/03/20 05:27:09;;;;;;;17.03;11.57;;;8.90;1.00;;;;;;5060875;28;20467;-79
2022/03/20 05:29:38;;;;;;;16.80;11.43;;;8.70;1.00;;;;;;5056731;28;20963;-79
2022/03/20 05:32:08;;;;;;;19.60;13.60;;;8.70;1.00;;;;;;5060411;28;20571;-79
2022/03/20 05:34:38;;;;;;;21.70;13.50;;;8.60;1.00;;;;;;5056204;28;20450;-79
2022/03/20 05:37:08;;;;;;;16.67;11.63;;;8.10;1.00;;;;;;5060762;28;20519;-80
2022/03/20 05:39:36;;;;;;;20.40;13.20;;;8.00;1.00;;;;;;5057387;28;21198;-79
2022/03/20 05:42:05;;;;;;;18.90;12.13;;;8.00;1.00;;;;;;5058172;28;20450;-80
2022/03/20 05:44:34;;;;;;;15.47;11.50;;;8.30;1.00;;;;;;5061931;28;20472;-80
2022/03/20 05:47:04;;;;;;;16.50;11.47;;;8.50;1.00;;;;;;5063057;28;20477;-80
2022/03/20 05:49:32;;;;;;;18.47;11.80;;;8.60;1.00;;;;;;5063121;28;20545;-80
2022/03/20 05:52:02;;;;;;;18.50;11.70;;;8.70;1.00;;;;;;5063909;28;20925;-79
2022/03/20 05:54:30;;;;;;;20.63;11.77;;;8.80;1.00;;;;;;5062982;28;20511;-79
2022/03/20 05:59:44;;;;;;;18.43;11.40;;;8.80;1.00;;;;;;5065247;28;20460;-80
2022/03/20 06:02:12;;;;;;;18.83;11.20;;;8.80;1.00;;;;;;5060443;28;20447;-80
2022/03/20 06:04:40;;;;;;;16.23;11.63;;;9.10;1.00;;;;;;5063702;28;20461;-80
2022/03/20 06:07:10;;;;;;;16.90;11.57;;;8.60;1.00;;;;;;5056588;28;20471;-80
2022/03/20 06:09:39;;;;;;;21.90;13.10;;;8.60;1.00;;;;;;5059793;28;20866;-77
2022/03/20 06:12:08;;;;;;;17.80;13.53;;;8.90;1.00;;;;;;5057294;28;20515;-79
2022/03/20 06:14:36;;;;;;;21.13;12.47;;;8.80;1.00;;;;;;5055374;28;20496;-80
2022/03/20 06:17:06;;;;;;;19.57;14.40;;;8.80;1.00;;;;;;5060751;28;20484;-80
2022/03/20 06:19:35;;;;;;;21.73;13.17;;;8.70;1.00;;;;;;5055775;28;20457;-80
2022/03/20 06:22:05;;;;;;;21.03;14.20;;;8.80;1.00;;;;;;5052455;28;20533;-79
2022/03/20 06:24:34;;;;;;;17.87;12.87;;;8.60;1.00;;;;;;5057275;28;20458;-81
2022/03/20 06:27:03;;;;;;;17.17;12.90;;;8.70;1.00;;;;;;5054568;28;21003;-80
2022/03/20 06:29:31;;;;;;;20.20;12.13;;;8.70;1.00;;;;;;5059083;28;20452;-79
2022/03/20 06:32:00;;;;;;;20.43;13.53;;;8.60;1.00;;;;;;5062260;28;20839;-80
2022/03/20 06:34:28;;;;;;;17.33;11.60;;;8.60;1.00;;;;;;5057522;28;20453;-79
2022/03/20 06:36:58;;;;;;;20.13;13.40;;;8.50;1.00;;;;;;5055351;28;20634;-79
2022/03/20 06:39:26;;;;;;;20.87;13.80;;;8.60;1.00;;;;;;5055565;28;20471;-80
2022/03/20 06:41:56;;;;;;;20.70;13.23;;;8.70;1.00;;;;;;5061142;28;20842;-79
2022/03/20 06:44:25;;;;;;;21.10;12.50;;;8.60;1.00;;;;;;5056255;28;20452;-79
2022/03/20 06:46:54;;;;;;;18.13;12.83;;;8.70;1.00;;;;;;5054937;28;21021;-80
2022/03/20 06:49:23;;;;;;;21.97;14.07;;;9.10;1.00;;;;;;5058342;28;20478;-80
2022/03/20 06:51:51;;;;;;;17.77;11.30;;;8.80;1.00;;;;;;5055383;28;20449;-79
2022/03/20 06:54:19;;;;;;;20.73;13.07;;;8.90;1.00;;;;;;5059273;28;21031;-80
2022/03/20 06:56:48;;;;;;;16.43;13.50;;;9.00;1.00;;;;;;5058443;28;20900;-79
2022/03/20 06:59:18;;;;;;;18.13;13.40;;;9.00;1.00;;;;;;5057643;28;20469;-80
2022/03/20 07:01:47;;;;;;;19.20;12.57;;;8.90;1.00;;;;;;5059061;28;20511;-79
2022/03/20 07:04:16;;;;;;;19.63;12.90;;;9.00;1.00;;;;;;5056312;28;20963;-79
2022/03/20 07:06:45;;;;;;;21.20;14.27;;;9.00;1.00;;;;;;5058491;28;20521;-77
2022/03/20 07:09:13;;;;;;;16.27;11.60;;;9.10;1.00;;;;;;5065615;28;20600;-79
2022/03/20 07:11:42;;;;;;;19.93;13.80;;;9.30;1.00;;;;;;5064936;28;20464;-77
2022/03/20 07:14:10;;;;;;;20.43;12.50;;;9.30;1.00;;;;;;5064021;28;20492;-78
2022/03/20 07:16:43;;;;;;;16.70;12.37;;;9.50;1.00;;;;;;5061123;28;20526;-78
2022/03/20 07:19:16;;;;;;;18.97;13.90;;;9.60;1.00;;;;;;5060158;28;21054;-81
2022/03/20 07:21:44;;;;;;;19.67;14.67;;;9.70;1.00;;;;;;5062931;28;20469;-80
2022/03/20 07:24:12;;;;;;;18.07;12.70;;;9.70;1.00;;;;;;5060296;28;20964;-79
2022/03/20 07:29:32;;;;;;;18.17;11.97;;;9.60;1.00;;;;;;5061973;28;20550;-82
2022/03/20 07:32:04;;;;;;;19.92;14.43;;;9.70;1.00;;;;;;5056151;28;20501;-78
2022/03/20 07:34:33;;;;;;;19.60;14.60;;;9.80;1.00;;;;;;5060251;28;20315;-78
2022/03/20 07:37:01;;;;;;;19.55;15.20;;;9.90;1.00;;;;;;5061313;28;20442;-78
2022/03/20 07:39:29;;;;;;;19.60;14.10;;;10.00;1.00;;;;;;5058861;28;20191;-77
2022/03/20 07:41:58;;;;;;;18.00;13.33;;;9.90;1.00;;;;;;5055797;28;20486;-78
2022/03/20 07:44:29;;;;;;;20.53;13.57;;;9.80;1.00;;;;;;5058818;28;20461;-78
2022/03/20 07:46:57;;;;;;;21.13;14.17;;;9.90;1.00;;;;;;5064787;28;20484;-80
2022/03/20 07:49:27;;;;;;;24.07;15.10;;;9.80;1.00;;;;;;5061683;28;20449;-79
2022/03/20 07:51:57;;;;;;;21.37;12.70;;;9.70;1.00;;;;;;5061594;28;20465;-80
2022/03/20 07:54:27;;;;;;;19.17;13.20;;;9.90;1.00;;;;;;5060503;28;20469;-79
2022/03/20 07:56:55;;;;;;;20.20;12.73;;;10.00;1.00;;;;;;5060552;28;20485;-78
2022/03/20 07:59:23;;;;;;;17.30;13.20;;;10.10;1.00;;;;;;5058619;28;20451;-79
2022/03/20 08:01:51;;;;;;;18.83;13.57;;;10.40;1.00;;;;;;5064462;28;20454;-80
2022/03/20 08:04:21;;;;;;;20.47;13.10;;;10.60;1.00;;;;;;5059232;28;20450;-80
2022/03/20 08:06:51;;;;;;;18.57;14.07;;;10.60;1.00;;;;;;5051332;28;20531;-78
2022/03/20 08:09:19;;;;;;;22.30;13.80;;;10.60;1.00;;;;;;5055749;28;20490;-80
2022/03/20 08:11:47;;;;;;;20.42;15.00;;;10.70;1.00;;;;;;5056650;28;20439;-79
2022/03/20 08:14:16;;;;;;;22.40;13.47;;;10.90;1.00;;;;;;5056025;28;20226;-80
2022/03/20 08:16:44;;;;;;;17.57;14.00;;;11.10;1.00;;;;;;5059007;28;20486;-78
2022/03/20 08:19:15;;;;;;;21.40;13.90;;;11.20;1.00;;;;;;5058743;28;20463;-79
2022/03/20 08:21:45;;;;;;;16.80;12.63;;;11.30;1.00;;;;;;5061715;28;20546;-78
2022/03/20 08:24:15;;;;;;;16.63;13.80;;;11.50;1.00;;;;;;5056237;28;20470;-78
2022/03/20 08:26:43;;;;;;;22.35;15.50;;;11.80;1.00;;;;;;5058902;28;20445;-78
2022/03/20 08:29:13;;;;;;;21.10;14.63;;;11.90;1.00;;;;;;5059105;28;20196;-78
2022/03/20 08:31:47;;;;;;;23.03;14.17;;;12.10;2.10;;;;;;5058941;28;21274;-78
2022/03/20 08:34:17;;;;;;;18.30;14.33;;;12.30;1.80;;;;;;5060093;28;20484;-78
2022/03/20 08:36:46;;;;;;;16.50;12.47;;;12.30;2.20;;;;;;5058144;28;20469;-79
2022/03/20 08:39:15;;;;;;;19.90;13.17;;;12.30;1.80;;;;;;5062621;28;20482;-78
2022/03/20 08:41:46;;;;;;;18.93;13.00;;;12.30;1.10;;;;;;5062049;28;20459;-80
2022/03/20 08:44:14;;;;;;;15.90;11.73;;;12.30;1.50;;;;;;5063011;28;22100;-80
2022/03/20 08:46:42;;;;;;;20.10;14.17;;;12.50;2.90;;;;;;5064259;28;20481;-79
2022/03/20 08:49:10;;;;;;;20.00;13.87;;;12.50;3.60;;;;;;5056257;28;20455;-79
2022/03/20 08:51:39;;;;;;;18.20;13.27;;;12.50;3.10;;;;;;5064435;28;20512;-78
2022/03/20 08:54:08;;;;;;;19.03;13.50;;;12.50;1.70;;;;;;5061532;28;20497;-81
2022/03/20 08:56:38;;;;;;;17.50;11.83;;;12.50;2.00;;;;;;5060746;28;20541;-77
2022/03/20 08:59:07;;;;;;;18.13;12.53;;;12.60;3.00;;;;;;5061859;28;20500;-79
2022/03/20 09:01:35;;;;;;;19.30;13.83;;;12.70;3.30;;;;;;5058655;28;20438;-76
2022/03/20 09:04:04;;;;;;;20.60;13.43;;;12.80;5.50;;;;;;5061261;28;21176;-79
2022/03/20 09:06:32;;;;;;;18.10;12.70;;;13.00;3.80;;;;;;5055472;28;20471;-78
2022/03/20 09:09:01;;;;;;;15.50;11.80;;;13.00;2.10;;;;;;5057156;28;20876;-78
2022/03/20 09:11:29;;;;;;;21.80;12.93;;;12.70;1.00;;;;;;5059093;28;20469;-75
2022/03/20 09:13:58;;;;;;;15.33;11.70;;;12.60;1.00;;;;;;5057507;28;20574;-79
2022/03/20 09:19:12;;;;;;;17.05;13.13;;;12.80;1.00;;;;;;5057687;28;20446;-78
2022/03/20 09:21:40;;;;;;;17.17;12.30;;;12.90;1.00;;;;;;5060246;28;20621;-77
2022/03/20 09:24:08;;;;;;;18.77;13.30;;;12.60;1.00;;;;;;5062452;28;20533;-76
2022/03/20 09:26:37;;;;;;;18.30;12.03;;;12.40;1.00;;;;;;5056486;28;20481;-77
2022/03/20 09:29:11;;;;;;;17.20;13.20;;;12.30;1.00;;;;;;5058920;28;20458;-77
2022/03/20 09:31:39;;;;;;;17.67;13.73;;;12.40;1.00;;;;;;5053060;28;20455;-78
2022/03/20 09:34:10;;;;;;;19.63;13.20;;;12.70;1.00;;;;;;5057298;28;20475;-79
2022/03/20 09:36:39;;;;;;;18.80;11.87;;;12.40;1.00;;;;;;5055759;28;20479;-79
2022/03/20 09:39:07;;;;;;;17.40;12.57;;;12.40;1.00;;;;;;5064179;28;20523;-77
2022/03/20 09:41:40;;;;;;;21.97;13.23;;;12.50;1.00;;;;;;5066677;28;20517;-78
2022/03/20 09:44:10;;;;;;;15.23;12.17;;;12.50;1.00;;;;;;5051561;28;20466;-78
2022/03/20 09:46:40;;;;;;;19.10;12.63;;;12.70;1.60;;;;;;5057162;28;20513;-78
2022/03/20 09:49:09;;;;;;;18.90;12.77;;;12.70;1.90;;;;;;5074603;28;21016;-77
2022/03/20 09:51:40;;;;;;;16.47;12.27;;;12.70;1.80;;;;;;5060949;28;20451;-77
2022/03/20 09:54:08;;;;;;;18.13;12.27;;;12.40;1.00;;;;;;5067477;28;20518;-77
2022/03/20 09:56:40;;;;;;;20.80;13.17;;;12.30;1.00;;;;;;5064983;28;20482;-77
2022/03/20 09:59:09;;;;;;;18.60;11.73;;;12.10;1.00;;;;;;5063884;28;20447;-78
2022/03/20 10:01:39;;;;;;;18.53;12.80;;;12.20;1.00;;;;;;5058485;28;20466;-77
2022/03/20 10:04:10;;;;;;;19.50;13.13;;;12.20;1.00;;;;;;5066208;28;20918;-77
2022/03/20 10:06:39;;;;;;;18.87;13.17;;;12.30;1.00;;;;;;5053169;28;20482;-78
2022/03/20 10:09:09;;;;;;;16.60;12.70;;;12.10;1.00;;;;;;5061772;28;20463;-78
2022/03/20 10:11:40;;;;;;;23.47;12.73;;;12.30;1.00;;;;;;5049833;28;20458;-78
2022/03/20 10:14:10;;;;;;;18.70;12.23;;;12.30;1.90;;;;;;5050665;28;20484;-78
2022/03/20 10:16:41;;;;;;;24.23;12.90;;;12.50;3.00;;;;;;5059704;28;20474;-77
2022/03/20 10:19:29;;;;;;;15.97;11.97;;;12.50;14.80;;;;;;5060183;28;20467;-78
2022/03/20 10:21:59;;;;;;;15.83;12.27;;;12.60;4.20;;;;;;5067145;28;20446;-79
2022/03/20 10:24:31;;;;;;;20.07;13.03;;;12.50;4.60;;;;;;5066969;28;20583;-78
2022/03/20 10:27:11;;;;;;;23.60;14.50;;;12.50;4.70;;;;;;5067501;28;20482;-78
2022/03/20 10:29:52;;;;;;;23.03;13.10;;;12.50;4.80;;;;;;5066609;28;20507;-79
2022/03/20 10:32:22;;;;;;;20.17;12.23;;;12.50;5.50;;;;;;5055116;28;20463;-78
2022/03/20 10:34:53;;;;;;;17.33;12.10;;;12.60;6.90;;;;;;5053638;28;20498;-78
2022/03/20 10:37:42;;;;;;;13.63;10.40;;;12.60;7.50;;;;;;5066292;28;20489;-78
2022/03/20 10:40:11;;;;;;;16.70;11.50;;;12.80;10.70;;;;;;5060038;28;20458;-77
2022/03/20 10:42:40;;;;;;;15.83;12.53;;;13.10;11.50;;;;;;5071324;28;20958;-77
2022/03/20 10:45:09;;;;;;;16.60;11.37;;;13.10;12.40;;;;;;5065374;28;20500;-79
2022/03/20 10:47:39;;;;;;;17.00;11.23;;;13.10;11.40;;;;;;5068775;28;20477;-78
2022/03/20 10:50:09;;;;;;;17.87;11.60;;;13.10;13.30;;;;;;5067763;28;20549;-78
2022/03/20 10:52:38;;;;;;;19.67;11.37;;;13.30;13.70;;;;;;5070447;28;20459;-78
2022/03/20 10:55:12;;;;;;;19.37;10.73;;;13.30;13.10;;;;;;5057008;28;20471;-78
2022/03/20 10:57:40;;;;;;;17.67;12.20;;;13.50;14.20;;;;;;5061891;28;21028;-78
2022/03/20 11:00:11;;;;;;;15.77;10.43;;;13.70;15.80;;;;;;5061207;28;20450;-78
2022/03/20 11:02:42;;;;;;;16.67;10.00;;;13.80;14.80;;;;;;5060577;28;20454;-78
2022/03/20 11:05:10;;;;;;;17.60;11.53;;;14.10;17.80;;;;;;5059885;28;20445;-78
2022/03/20 11:07:39;;;;;;;13.80;10.30;;;14.30;19.20;;;;;;5057634;28;20500;-78
2022/03/20 11:10:11;;;;;;;13.20;9.73;;;14.60;21.30;;;;;;5063320;28;20544;-80
2022/03/20 11:12:42;;;;;;;13.13;9.13;;;14.80;21.80;;;;;;5061922;28;20505;-78
2022/03/20 11:15:11;;;;;;;10.30;7.70;;;14.70;20.10;;;;;;5060159;28;20484;-78
2022/03/20 11:17:44;;;;;;;10.90;7.73;;;14.80;19.40;;;;;;5064873;28;20470;-79
2022/03/20 11:20:14;;;;;;;12.80;8.17;;;14.80;19.90;;;;;;5058719;28;20469;-79
2022/03/20 11:22:48;;;;;;;11.70;7.40;;;14.90;21.20;;;;;;5055262;28;20486;-76
2022/03/20 11:25:20;;;;;;;9.20;6.90;;;14.90;20.80;;;;;;5057089;28;20470;-79
2022/03/20 11:27:55;;;;;;;8.57;5.77;;;14.90;20.70;;;;;;5069808;28;20474;-80
2022/03/20 11:30:28;;;;;;;10.05;7.10;;;15.10;21.80;;;;;;5069449;28;20446;-77
2022/03/20 11:33:00;;;;;;;11.17;6.77;;;15.50;24.50;;;;;;5057455;28;20308;-78
2022/03/20 11:35:31;;;;;;;10.23;7.40;;;15.40;23.20;;;;;;5056037;28;20476;-78
2022/03/20 11:38:14;;;;;;;8.10;6.70;;;15.60;23.90;;;;;;5057925;28;20460;-78
2022/03/20 11:41:12;;;;;;;11.20;4.50;;;15.70;22.20;;;;;;5066732;28;20960;-78
2022/03/20 11:43:45;;;;;;;7.47;5.00;;;15.80;21.00;;;;;;5064411;28;20461;-78
2022/03/20 11:46:21;;;;;;;11.00;4.60;;;15.80;18.70;;;;;;5058347;28;20480;-76
2022/03/20 11:49:23;;;;;;;8.03;4.10;;;15.70;16.70;;;;;;5058505;28;20532;-79
2022/03/20 11:52:11;;;;;;;5.53;3.60;;;15.70;17.10;;;;;;5054840;28;21007;-76
2022/03/20 11:54:53;;;;;;;8.17;4.50;;;15.90;20.60;;;;;;5058745;28;20496;-77
2022/03/20 11:57:44;;;;;;;4.53;4.13;;;15.80;18.20;;;;;;5057457;28;20471;-78
2022/03/20 12:00:16;;;;;;;7.67;3.50;;;16.10;19.90;;;;;;5056059;28;20834;-75
2022/03/20 12:02:51;;;;;;;5.67;3.57;;;16.00;18.20;;;;;;5058526;28;20452;-79
2022/03/20 12:05:37;;;;;;;7.07;4.30;;;16.00;20.70;;;;;;5062516;28;20440;-78
2022/03/20 12:08:19;;;;;;;6.20;3.80;;;16.10;17.70;;;;;;5060691;28;20471;-80
2022/03/20 12:10:57;;;;;;;4.70;3.27;;;16.10;17.30;;;;;;5057058;28;20462;-80
2022/03/20 12:13:31;;;;;;;5.40;3.90;;;16.20;18.20;;;;;;5060460;28;21179;-79
2022/03/20 12:15:59;;;;;;;4.87;3.83;;;16.30;20.20;;;;;;5058851;28;20494;-79
2022/03/20 12:18:27;;;;;;;5.80;3.20;;;16.30;19.00;;;;;;5058202;28;20460;-77
2022/03/20 12:21:05;;;;;;;7.43;5.47;;;16.40;19.70;;;;;;5058748;28;20456;-77
2022/03/20 12:23:43;;;;;;;5.20;3.77;;;16.40;18.50;;;;;;5058957;28;20468;-78
2022/03/20 12:26:34;;;;;;;8.10;5.03;;;16.50;19.50;;;;;;5063333;28;21190;-78
2022/03/20 12:29:27;;;;;;;6.87;5.03;;;16.60;19.50;;;;;;5059930;28;20469;-78
2022/03/20 12:31:55;;;;;;;7.27;4.80;;;16.60;18.20;;;;;;5057226;28;20456;-78
2022/03/20 12:34:25;;;;;;;5.57;4.40;;;16.70;18.70;;;;;;5062720;28;20889;-78
2022/03/20 12:36:55;;;;;;;6.13;4.73;;;16.60;19.00;;;;;;5060389;28;21069;-78
2022/03/20 12:39:48;;;;;;;7.13;4.23;;;16.70;18.40;;;;;;5061614;28;20475;-77
2022/03/20 12:42:18;;;;;;;6.00;5.10;;;16.70;17.50;;;;;;5053373;28;20467;-77
2022/03/20 12:44:47;;;;;;;10.53;5.30;;;16.70;18.60;;;;;;5063844;28;21002;-76
2022/03/20 12:47:19;;;;;;;4.40;4.00;;;16.50;14.00;;;;;;5064843;28;20487;-76
2022/03/20 12:49:48;;;;;;;5.13;4.63;;;16.50;14.50;;;;;;5069543;28;20967;-75
2022/03/20 12:52:20;;;;;;;6.50;4.70;;;16.60;16.20;;;;;;5060395;28;21056;-77
2022/03/20 12:54:55;;;;;;;7.00;4.73;;;16.70;15.90;;;;;;5065645;28;20461;-78
2022/03/20 12:57:41;;;;;;;5.63;4.60;;;16.80;16.30;;;;;;5058785;28;20492;-78
2022/03/20 13:00:13;;;;;;;7.90;5.23;;;16.80;16.90;;;;;;5054730;28;20465;-77
2022/03/20 13:02:58;;;;;;;7.40;5.30;;;16.90;18.20;;;;;;5061507;28;20467;-77
2022/03/20 13:05:28;;;;;;;6.30;4.70;;;16.90;16.60;;;;;;5059835;28;20466;-76
2022/03/20 13:07:57;;;;;;;5.93;5.00;;;16.90;15.50;;;;;;5059955;28;20479;-77
2022/03/20 13:10:32;;;;;;;8.73;5.73;;;16.80;14.20;;;;;;5065928;28;20532;-76
2022/03/20 13:13:09;;;;;;;7.57;5.50;;;16.80;15.10;;;;;;5059726;28;20834;-76
2022/03/20 13:15:39;;;;;;;6.50;5.33;;;17.00;16.60;;;;;;5062194;28;20470;-77
2022/03/20 13:18:09;;;;;;;12.13;5.87;;;17.00;18.00;;;;;;5061705;28;20474;-77
2022/03/20 13:20:41;;;;;;;9.60;4.83;;;17.00;16.70;;;;;;5060221;28;20453;-77
2022/03/20 13:23:13;;;;;;;8.83;6.70;;;17.00;16.40;;;;;;5059065;28;20446;-77
2022/03/20 13:25:42;;;;;;;8.80;5.50;;;17.10;17.30;;;;;;5063192;28;20558;-77
2022/03/20 13:28:23;;;;;;;11.63;5.83;;;17.10;17.00;;;;;;5059462;28;20508;-77
2022/03/20 13:30:51;;;;;;;9.20;6.50;;;17.00;15.00;;;;;;5060388;28;20504;-77
2022/03/20 13:33:28;;;;;;;8.73;6.00;;;17.00;16.40;;;;;;5064573;28;20463;-77